createdAt,value
2023-03-12T00:00:31.735Z,99980.38
2023-03-12T00:01:34.695Z,99994.78
2023-03-12T00:02:36.974Z,99993.28
2023-03-12T00:03:40.499Z,99986.84
2023-03-12T00:04:44.005Z,99986.00
2023-03-12T00:05:46.381Z,99986.00
2023-03-12T00:06:48.522Z,99986.00
2023-03-12T00:07:51.599Z,99981.44
2023-03-12T00:08:56.222Z,99995.13
2023-03-12T00:09:58.598Z,99978.91
2023-03-12T00:11:00.976Z,99985.16
2023-03-12T00:12:04.144Z,99986.00
2023-03-12T00:13:07.288Z,99994.31
2023-03-12T00:14:09.498Z,99987.22
2023-03-12T00:15:11.711Z,99984.31
2023-03-12T00:16:15.980Z,100005.16
2023-03-12T00:17:18.249Z,99997.03
2023-03-12T00:18:20.528Z,99989.72
2023-03-12T00:19:23.165Z,99988.91
2023-03-12T00:20:26.416Z,99996.19
2023-03-12T00:21:28.674Z,99992.44
2023-03-12T00:22:30.819Z,99988.22
2023-03-12T00:23:33.038Z,99993.50
2023-03-12T00:24:35.250Z,99997.22
2023-03-12T00:25:37.440Z,99994.50
2023-03-12T00:26:40.123Z,99996.34
2023-03-12T00:27:43.364Z,99999.06
2023-03-12T00:28:46.944Z,99989.09
2023-03-12T00:29:49.234Z,99994.50
2023-03-12T00:30:55.390Z,99997.22
2023-03-12T00:31:59.315Z,99997.22
2023-03-12T00:33:02.168Z,99995.53
2023-03-12T00:34:04.850Z,99997.22
2023-03-12T00:35:07.913Z,99998.22
2023-03-12T00:36:11.076Z,100001.78
2023-03-12T00:37:13.368Z,99997.22
2023-03-12T00:38:15.597Z,99998.22
2023-03-12T00:39:17.723Z,99999.06
2023-03-12T00:40:22.641Z,99998.22
2023-03-12T00:41:25.986Z,99987.22
2023-03-12T00:42:28.859Z,99988.91
2023-03-12T00:43:32.026Z,99992.63
2023-03-12T00:44:34.400Z,99991.78
2023-03-12T00:45:37.137Z,99998.22
2023-03-12T00:46:39.389Z,99995.53
2023-03-12T00:47:42.950Z,99996.34
2023-03-12T00:48:45.261Z,99993.66
2023-03-12T00:49:47.554Z,100002.63
2023-03-12T00:50:49.763Z,100003.47
2023-03-12T00:51:52.117Z,100005.53
2023-03-12T00:52:54.985Z,100002.63
2023-03-12T00:53:57.256Z,100004.47
2023-03-12T00:55:00.484Z,100000.13
2023-03-12T00:56:04.717Z,99996.53
2023-03-12T00:57:07.633Z,100001.13
2023-03-12T00:58:11.313Z,99999.25
2023-03-12T00:59:15.703Z,100003.66
2023-03-12T01:00:19.087Z,99997.41
2023-03-12T01:01:21.371Z,99995.72
2023-03-12T01:02:23.590Z,99995.72
2023-03-12T01:03:25.850Z,100001.97
2023-03-12T01:04:28.041Z,99993.84
2023-03-12T01:05:30.209Z,99995.72
2023-03-12T01:06:32.448Z,99996.53
2023-03-12T01:07:36.289Z,99996.34
2023-03-12T01:08:38.522Z,99991.13
2023-03-12T01:09:40.816Z,100000.13
2023-03-12T01:10:43.742Z,99996.34
2023-03-12T01:11:45.943Z,99995.72
2023-03-12T01:12:48.276Z,99993.84
2023-03-12T01:13:50.605Z,99998.44
2023-03-12T01:14:52.864Z,99995.72
2023-03-12T01:15:55.417Z,100001.31
2023-03-12T01:16:57.624Z,99991.31
2023-03-12T01:18:00.158Z,99998.63
2023-03-12T01:19:04.376Z,100002.16
2023-03-12T01:20:08.550Z,99997.56
2023-03-12T01:21:10.801Z,100001.31
2023-03-12T01:22:13.109Z,99999.66
2023-03-12T01:23:16.225Z,100005.88
2023-03-12T01:24:18.449Z,100003.38
2023-03-12T01:25:20.728Z,100004.19
2023-03-12T01:26:23.384Z,100002.34
2023-03-12T01:27:25.703Z,100001.69
2023-03-12T01:28:28.053Z,100007.97
2023-03-12T01:29:30.389Z,99999.84
2023-03-12T01:30:32.906Z,99995.44
2023-03-12T01:31:36.246Z,99999.16
2023-03-12T01:32:38.495Z,100001.88
2023-03-12T01:33:41.131Z,100005.41
2023-03-12T01:34:44.414Z,99999.16
2023-03-12T01:35:46.810Z,99999.16
2023-03-12T01:36:52.113Z,100005.41
2023-03-12T01:37:57.143Z,100010.81
2023-03-12T01:39:00.943Z,100018.13
2023-03-12T01:40:04.596Z,100003.75
2023-03-12T01:41:07.105Z,100004.59
2023-03-12T01:42:11.705Z,100016.44
2023-03-12T01:43:25.110Z,100003.91
2023-03-12T01:44:28.201Z,100012.03
2023-03-12T01:45:52.435Z,100006.63
2023-03-12T01:46:54.957Z,100011.41
2023-03-12T01:47:59.411Z,99998.69
2023-03-12T01:49:23.605Z,100006.81
2023-03-12T01:50:25.866Z,100003.47
2023-03-12T01:51:33.416Z,100007.00
2023-03-12T01:52:38.158Z,100003.47
2023-03-12T01:53:45.136Z,100014.31
2023-03-12T01:54:55.301Z,100016.16
2023-03-12T01:56:00.712Z,100011.75
2023-03-12T01:57:06.031Z,100006.53
2023-03-12T01:58:08.432Z,100006.53
2023-03-12T01:59:16.092Z,100007.59
2023-03-12T02:00:22.071Z,100007.59
2023-03-12T02:01:25.463Z,100014.84
2023-03-12T02:02:30.080Z,100013.00
2023-03-12T02:03:37.446Z,100013.16
2023-03-12T02:04:44.620Z,100011.31
2023-03-12T02:06:03.478Z,100008.59
2023-03-12T02:07:10.195Z,100006.91
2023-03-12T02:08:14.563Z,100005.03
2023-03-12T02:09:20.338Z,100005.22
2023-03-12T02:10:25.493Z,100006.25
2023-03-12T02:11:28.138Z,100003.72
2023-03-12T02:12:30.725Z,100003.72
2023-03-12T02:13:33.784Z,100009.16
2023-03-12T02:14:37.102Z,99999.19
2023-03-12T02:15:40.727Z,100003.94
2023-03-12T02:16:43.667Z,99997.69
2023-03-12T02:17:46.380Z,100003.94
2023-03-12T02:18:51.690Z,99998.50
2023-03-12T02:20:13.136Z,100002.25
2023-03-12T02:21:23.479Z,100005.81
2023-03-12T02:22:26.168Z,100007.66
2023-03-12T02:23:45.721Z,100003.94
2023-03-12T02:25:04.742Z,100004.94
2023-03-12T02:26:08.292Z,100013.06
2023-03-12T02:27:12.390Z,100011.38
2023-03-12T02:28:16.777Z,100012.44
2023-03-12T02:29:19.129Z,100007.00
2023-03-12T02:30:22.580Z,100015.28
2023-03-12T02:31:29.982Z,100013.44
2023-03-12T02:32:39.613Z,100011.75
2023-03-12T02:33:42.448Z,100013.44
2023-03-12T02:34:44.685Z,100012.78
2023-03-12T02:35:48.152Z,100014.66
2023-03-12T02:36:50.658Z,100010.06
2023-03-12T02:37:55.570Z,100012.78
2023-03-12T02:38:58.031Z,100020.06
2023-03-12T02:40:08.007Z,100020.06
2023-03-12T02:41:11.895Z,100018.38
2023-03-12T02:42:15.138Z,100015.00
2023-03-12T02:43:21.843Z,100018.38
2023-03-12T02:44:31.973Z,100012.97
2023-03-12T02:45:38.048Z,100020.25
2023-03-12T02:46:52.789Z,100017.72
2023-03-12T02:47:55.003Z,100026.69
2023-03-12T02:48:58.029Z,100023.97
2023-03-12T02:50:00.307Z,100026.69
2023-03-12T02:51:03.476Z,100021.47
2023-03-12T02:52:05.737Z,100022.50
2023-03-12T02:53:07.988Z,100026.88
2023-03-12T02:54:11.768Z,100025.19
2023-03-12T02:55:14.378Z,100022.50
2023-03-12T02:56:17.233Z,100029.75
2023-03-12T02:57:19.471Z,100032.44
2023-03-12T02:58:21.945Z,100029.75
2023-03-12T02:59:26.838Z,100028.91
2023-03-12T03:00:32.480Z,100030.59
2023-03-12T03:01:35.992Z,100036.84
2023-03-12T03:02:39.838Z,100032.44
2023-03-12T03:03:42.086Z,100029.75
2023-03-12T03:04:44.272Z,100036.84
2023-03-12T03:05:46.576Z,100031.63
2023-03-12T03:06:49.066Z,100036.03
2023-03-12T03:07:51.274Z,100036.84
2023-03-12T03:08:53.598Z,100027.91
2023-03-12T03:09:55.872Z,100037.88
2023-03-12T03:10:58.551Z,100040.41
2023-03-12T03:12:00.967Z,100040.41
2023-03-12T03:13:05.450Z,100033.31
2023-03-12T03:14:08.455Z,100039.56
2023-03-12T03:15:11.773Z,100034.13
2023-03-12T03:16:14.890Z,100040.41
2023-03-12T03:17:17.098Z,100039.56
2023-03-12T03:18:19.367Z,100035.00
2023-03-12T03:19:21.539Z,100043.13
2023-03-12T03:20:26.122Z,100043.94
2023-03-12T03:21:28.615Z,100042.94
2023-03-12T03:22:30.961Z,100046.66
2023-03-12T03:23:33.771Z,100051.03
2023-03-12T03:24:36.405Z,100050.19
2023-03-12T03:25:39.266Z,100058.31
2023-03-12T03:26:41.533Z,100055.44
2023-03-12T03:27:44.626Z,100058.31
2023-03-12T03:28:49.498Z,100056.47
2023-03-12T03:29:52.182Z,100058.16
2023-03-12T03:30:58.416Z,100058.16
2023-03-12T03:32:00.694Z,100060.66
2023-03-12T03:33:03.035Z,100057.09
2023-03-12T03:34:05.281Z,100067.75
2023-03-12T03:35:07.894Z,100060.66
2023-03-12T03:36:11.208Z,100065.06
2023-03-12T03:37:21.645Z,100064.19
2023-03-12T03:38:24.098Z,100057.78
2023-03-12T03:39:28.795Z,100067.56
2023-03-12T03:40:31.193Z,100064.88
2023-03-12T03:41:33.563Z,100069.41
2023-03-12T03:42:35.881Z,100068.41
2023-03-12T03:43:38.088Z,100072.81
2023-03-12T03:44:41.027Z,100068.06
2023-03-12T03:45:44.964Z,100076.19
2023-03-12T03:46:47.926Z,100072.63
2023-03-12T03:47:50.230Z,100066.38
2023-03-12T03:48:53.102Z,100064.50
2023-03-12T03:49:56.906Z,100064.31
2023-03-12T03:51:03.041Z,100069.72
2023-03-12T03:52:07.839Z,100072.41
2023-03-12T03:53:12.898Z,100066.84
2023-03-12T03:54:15.656Z,100073.09
2023-03-12T03:55:19.594Z,100071.22
2023-03-12T03:56:22.030Z,100074.78
2023-03-12T03:57:26.943Z,100072.91
2023-03-12T03:58:29.351Z,100070.19
2023-03-12T03:59:32.152Z,100065.63
2023-03-12T04:00:34.927Z,100072.72
2023-03-12T04:01:40.370Z,100073.38
2023-03-12T04:02:42.583Z,100074.22
2023-03-12T04:03:46.946Z,100070.69
2023-03-12T04:04:49.487Z,100072.38
2023-03-12T04:06:01.171Z,100073.19
2023-03-12T04:07:05.399Z,100074.03
2023-03-12T04:08:10.759Z,100071.31
2023-03-12T04:09:13.117Z,100073.00
2023-03-12T04:10:15.998Z,100073.88
2023-03-12T04:11:20.746Z,100071.16
2023-03-12T04:12:26.372Z,100068.44
2023-03-12T04:13:28.935Z,100076.56
2023-03-12T04:14:31.150Z,100080.94
2023-03-12T04:15:33.922Z,100070.09
2023-03-12T04:16:36.247Z,100079.09
2023-03-12T04:17:39.327Z,100081.78
2023-03-12T04:18:42.145Z,100081.59
2023-03-12T04:19:44.644Z,100078.06
2023-03-12T04:20:46.891Z,100078.91
2023-03-12T04:21:49.130Z,100079.91
2023-03-12T04:22:51.405Z,100076.38
2023-03-12T04:23:53.748Z,100081.59
2023-03-12T04:24:59.754Z,100079.91
2023-03-12T04:26:03.270Z,100079.09
2023-03-12T04:27:05.967Z,100080.78
2023-03-12T04:28:09.717Z,100077.41
2023-03-12T04:29:14.027Z,100083.47
2023-03-12T04:30:17.056Z,100084.31
2023-03-12T04:31:21.573Z,100090.75
2023-03-12T04:32:25.979Z,100078.06
2023-03-12T04:33:30.562Z,100077.22
2023-03-12T04:34:33.581Z,100074.50
2023-03-12T04:35:36.865Z,100073.66
2023-03-12T04:36:39.457Z,100075.34
2023-03-12T04:37:42.694Z,100073.47
2023-03-12T04:38:45.649Z,100073.47
2023-03-12T04:39:50.347Z,100079.09
2023-03-12T04:41:20.361Z,100080.09
2023-03-12T04:42:43.097Z,100075.72
2023-03-12T04:43:45.311Z,100081.97
2023-03-12T04:44:52.593Z,100072.16
2023-03-12T04:45:56.215Z,100075.91
2023-03-12T04:46:58.758Z,100083.00
2023-03-12T04:48:01.893Z,100084.03
2023-03-12T04:49:05.954Z,100086.72
2023-03-12T04:50:11.767Z,100082.34
2023-03-12T04:51:14.115Z,100088.78
2023-03-12T04:52:17.854Z,100086.09
2023-03-12T04:53:21.205Z,100088.78
2023-03-12T04:54:24.649Z,100087.09
2023-03-12T04:55:27.541Z,100088.13
2023-03-12T04:56:29.786Z,100097.06
2023-03-12T04:57:32.041Z,100093.53
2023-03-12T04:58:36.020Z,100089.81
2023-03-12T04:59:38.381Z,100089.16
2023-03-12T05:00:41.716Z,100093.53
2023-03-12T05:01:44.370Z,100092.72
2023-03-12T05:02:55.442Z,100093.72
2023-03-12T05:03:57.990Z,100101.84
2023-03-12T05:05:00.523Z,100093.91
2023-03-12T05:06:02.769Z,100096.63
2023-03-12T05:07:07.063Z,100097.44
2023-03-12T05:08:09.496Z,100096.63
2023-03-12T05:09:12.141Z,100098.28
2023-03-12T05:10:14.877Z,100098.47
2023-03-12T05:11:18.097Z,100098.47
2023-03-12T05:12:20.773Z,100100.34
2023-03-12T05:13:23.262Z,100096.78
2023-03-12T05:14:29.547Z,100097.66
2023-03-12T05:15:32.294Z,100099.34
2023-03-12T05:16:34.608Z,100107.44
2023-03-12T05:17:37.097Z,100099.34
2023-03-12T05:18:41.417Z,100096.63
2023-03-12T05:19:43.674Z,100099.34
2023-03-12T05:20:46.069Z,100095.56
2023-03-12T05:21:48.725Z,100100.84
2023-03-12T05:22:50.981Z,100099.78
2023-03-12T05:23:53.625Z,100095.41
2023-03-12T05:24:58.186Z,100095.41
2023-03-12T05:26:00.728Z,100095.22
2023-03-12T05:27:03.885Z,100096.25
2023-03-12T05:28:06.417Z,100098.94
2023-03-12T05:29:12.065Z,100103.34
2023-03-12T05:30:15.618Z,100100.66
2023-03-12T05:31:18.669Z,100097.94
2023-03-12T05:32:21.102Z,100097.75
2023-03-12T05:33:26.290Z,100101.28
2023-03-12T05:34:30.557Z,100090.44
2023-03-12T05:35:33.288Z,100095.03
2023-03-12T05:36:35.661Z,100098.38
2023-03-12T05:37:37.959Z,100100.94
2023-03-12T05:38:40.980Z,100101.75
2023-03-12T05:39:46.969Z,100099.25
2023-03-12T05:40:55.953Z,100101.75
2023-03-12T05:41:59.767Z,100102.44
2023-03-12T05:43:03.032Z,100096.16
2023-03-12T05:44:05.403Z,100099.53
2023-03-12T05:45:08.162Z,100108.69
2023-03-12T05:46:11.550Z,100103.94
2023-03-12T05:47:14.034Z,100099.53
2023-03-12T05:48:19.545Z,100102.88
2023-03-12T05:49:23.161Z,100101.03
2023-03-12T05:50:26.441Z,100100.84
2023-03-12T05:51:28.754Z,100093.53
2023-03-12T05:52:30.986Z,100102.34
2023-03-12T05:53:33.793Z,100099.63
2023-03-12T05:54:36.447Z,100102.16
2023-03-12T05:55:40.694Z,100096.75
2023-03-12T05:56:43.905Z,100101.97
2023-03-12T05:57:46.202Z,100104.66
2023-03-12T05:58:50.195Z,100098.44
2023-03-12T05:59:54.156Z,100110.75
2023-03-12T06:00:56.369Z,100104.50
2023-03-12T06:01:58.659Z,100108.03
2023-03-12T06:03:01.298Z,100114.97
2023-03-12T06:04:04.026Z,100114.13
2023-03-12T06:05:06.964Z,100111.22
2023-03-12T06:06:09.707Z,100103.94
2023-03-12T06:07:12.037Z,100114.56
2023-03-12T06:08:15.256Z,100111.88
2023-03-12T06:09:19.093Z,100114.38
2023-03-12T06:10:21.325Z,100112.72
2023-03-12T06:11:23.538Z,100104.41
2023-03-12T06:12:25.793Z,100109.44
2023-03-12T06:13:28.542Z,100114.66
2023-03-12T06:14:32.002Z,100103.69
2023-03-12T06:15:36.656Z,100104.31
2023-03-12T06:16:40.765Z,100106.69
2023-03-12T06:17:43.152Z,100104.41
2023-03-12T06:18:47.346Z,100101.34
2023-03-12T06:19:52.951Z,100101.16
2023-03-12T06:20:56.124Z,100101.44
2023-03-12T06:21:59.879Z,100104.22
2023-03-12T06:23:03.204Z,100100.97
2023-03-12T06:24:07.968Z,100101.06
2023-03-12T06:25:19.909Z,100098.22
2023-03-12T06:26:25.006Z,100108.13
2023-03-12T06:27:27.219Z,100105.50
2023-03-12T06:28:29.510Z,100105.56
2023-03-12T06:29:31.721Z,100102.78
2023-03-12T06:30:33.995Z,100111.41
2023-03-12T06:31:38.734Z,100105.91
2023-03-12T06:32:41.423Z,100115.41
2023-03-12T06:33:43.859Z,100111.72
2023-03-12T06:34:46.115Z,100106.63
2023-03-12T06:35:49.144Z,100104.63
2023-03-12T06:36:51.470Z,100107.84
2023-03-12T06:37:53.745Z,100102.72
2023-03-12T06:38:57.288Z,100109.50
2023-03-12T06:40:01.769Z,100107.28
2023-03-12T06:41:07.011Z,100109.25
2023-03-12T06:42:09.516Z,100111.63
2023-03-12T06:43:12.411Z,100114.66
2023-03-12T06:44:14.676Z,100112.19
2023-03-12T06:45:18.206Z,100116.22
2023-03-12T06:46:22.055Z,100119.22
2023-03-12T06:47:24.571Z,100105.88
2023-03-12T06:48:28.418Z,100111.59
2023-03-12T06:49:33.411Z,100107.25
2023-03-12T06:50:35.970Z,100119.19
2023-03-12T06:51:38.546Z,100112.13
2023-03-12T06:52:41.067Z,100118.63
2023-03-12T06:53:44.938Z,100112.59
2023-03-12T06:54:47.111Z,100115.53
2023-03-12T06:55:51.127Z,100112.00
2023-03-12T06:56:53.634Z,100113.03
2023-03-12T06:57:55.874Z,100110.34
2023-03-12T06:58:58.059Z,100108.84
2023-03-12T07:00:00.298Z,100105.50
2023-03-12T07:01:02.986Z,100112.81
2023-03-12T07:02:05.412Z,100113.00
2023-03-12T07:03:07.843Z,100111.25
2023-03-12T07:04:10.069Z,100119.66
2023-03-12T07:05:12.280Z,100111.03
2023-03-12T07:06:16.923Z,100110.38
2023-03-12T07:07:20.166Z,100105.06
2023-03-12T07:08:23.253Z,100114.22
2023-03-12T07:09:25.528Z,100108.91
2023-03-12T07:10:31.689Z,100105.72
2023-03-12T07:11:35.415Z,100103.94
2023-03-12T07:12:38.706Z,100097.53
2023-03-12T07:13:41.649Z,100110.28
2023-03-12T07:14:43.854Z,100109.34
2023-03-12T07:15:46.649Z,100101.25
2023-03-12T07:16:49.122Z,100108.50
2023-03-12T07:17:51.296Z,100105.03
2023-03-12T07:18:53.589Z,100097.97
2023-03-12T07:19:55.873Z,100101.63
2023-03-12T07:20:58.185Z,100108.03
2023-03-12T07:22:00.429Z,100108.34
2023-03-12T07:23:02.648Z,100102.06
2023-03-12T07:24:07.299Z,100098.56
2023-03-12T07:25:10.149Z,100095.06
2023-03-12T07:26:12.317Z,100101.66
2023-03-12T07:27:14.490Z,100098.41
2023-03-12T07:28:17.436Z,100097.00
2023-03-12T07:29:19.664Z,100087.38
2023-03-12T07:30:22.156Z,100094.22
2023-03-12T07:31:24.349Z,100101.03
2023-03-12T07:32:26.885Z,100095.19
2023-03-12T07:33:29.227Z,100100.09
2023-03-12T07:34:31.628Z,100095.94
2023-03-12T07:35:34.791Z,100101.94
2023-03-12T07:36:37.185Z,100106.00
2023-03-12T07:37:39.376Z,100100.13
2023-03-12T07:38:41.527Z,100097.06
2023-03-12T07:39:44.745Z,100095.63
2023-03-12T07:40:55.016Z,100101.34
2023-03-12T07:41:58.272Z,100096.56
2023-03-12T07:43:01.229Z,100099.53
2023-03-12T07:44:05.384Z,100096.19
2023-03-12T07:45:08.303Z,100101.28
2023-03-12T07:46:10.561Z,100095.16
2023-03-12T07:47:23.254Z,100095.63
2023-03-12T07:48:26.663Z,100097.16
2023-03-12T07:49:28.946Z,100096.22
2023-03-12T07:50:31.202Z,100087.81
2023-03-12T07:51:33.408Z,100095.09
2023-03-12T07:52:35.673Z,100090.50
2023-03-12T07:53:37.942Z,100091.44
2023-03-12T07:54:40.327Z,100087.13
2023-03-12T07:55:46.125Z,100093.31
2023-03-12T07:56:48.674Z,100089.81
2023-03-12T07:57:52.174Z,100088.00
2023-03-12T07:58:55.333Z,100090.00
2023-03-12T07:59:57.689Z,100087.56
2023-03-12T08:00:59.960Z,100097.84
2023-03-12T08:02:02.334Z,100092.94
2023-03-12T08:03:05.289Z,100094.94
2023-03-12T08:04:07.683Z,100091.66
2023-03-12T08:05:10.733Z,100103.25
2023-03-12T08:06:13.112Z,100095.63
2023-03-12T08:07:16.427Z,100098.44
2023-03-12T08:08:18.620Z,100094.59
2023-03-12T08:09:20.862Z,100097.94
2023-03-12T08:10:23.812Z,100101.50
2023-03-12T08:11:26.091Z,100092.44
2023-03-12T08:12:28.857Z,100094.13
2023-03-12T08:13:31.778Z,100095.19
2023-03-12T08:14:34.520Z,100096.25
2023-03-12T08:15:37.036Z,100099.28
2023-03-12T08:16:39.552Z,100095.91
2023-03-12T08:17:41.826Z,100101.19
2023-03-12T08:18:44.014Z,100100.00
2023-03-12T08:19:46.312Z,100107.44
2023-03-12T08:20:53.724Z,100103.25
2023-03-12T08:21:56.015Z,100104.34
2023-03-12T08:22:58.227Z,100107.94
2023-03-12T08:24:00.488Z,100102.44
2023-03-12T08:25:03.783Z,100104.34
2023-03-12T08:26:05.913Z,100104.09
2023-03-12T08:27:08.103Z,100104.09
2023-03-12T08:28:10.360Z,100094.50
2023-03-12T08:29:12.721Z,100104.19
2023-03-12T08:30:15.056Z,100103.69
2023-03-12T08:31:17.375Z,100103.78
2023-03-12T08:32:19.778Z,100107.94
2023-03-12T08:33:22.832Z,100112.94
2023-03-12T08:34:25.166Z,100103.94
2023-03-12T08:35:27.411Z,100102.34
2023-03-12T08:36:29.646Z,100097.19
2023-03-12T08:37:32.238Z,100095.34
2023-03-12T08:38:34.873Z,100098.75
2023-03-12T08:39:37.058Z,100100.50
2023-03-12T08:40:39.568Z,100095.66
2023-03-12T08:41:41.764Z,100099.31
2023-03-12T08:42:45.899Z,100102.13
2023-03-12T08:43:49.311Z,100103.63
2023-03-12T08:44:51.485Z,100099.84
2023-03-12T08:45:58.994Z,100100.78
2023-03-12T08:47:01.491Z,100103.88
2023-03-12T08:48:09.076Z,100112.19
2023-03-12T08:49:11.207Z,100102.84
2023-03-12T08:50:16.664Z,100099.84
2023-03-12T08:51:19.274Z,100095.75
2023-03-12T08:52:21.482Z,100097.41
2023-03-12T08:53:25.336Z,100091.38
2023-03-12T08:54:27.596Z,100096.28
2023-03-12T08:55:29.777Z,100094.38
2023-03-12T08:56:32.793Z,100091.63
2023-03-12T08:57:35.073Z,100101.25
2023-03-12T08:58:37.344Z,100090.72
2023-03-12T08:59:39.529Z,100095.66
2023-03-12T09:00:41.698Z,100094.81
2023-03-12T09:01:44.097Z,100090.09
2023-03-12T09:02:48.296Z,100089.75
2023-03-12T09:03:52.794Z,100084.78
2023-03-12T09:04:55.089Z,100094.34
2023-03-12T09:06:04.667Z,100093.19
2023-03-12T09:07:06.822Z,100093.69
2023-03-12T09:08:10.221Z,100089.53
2023-03-12T09:09:12.889Z,100093.63
2023-03-12T09:10:15.047Z,100094.13
2023-03-12T09:11:17.498Z,100099.31
2023-03-12T09:12:19.782Z,100094.31
2023-03-12T09:13:21.942Z,100096.47
2023-03-12T09:15:46.499Z,100095.84
2023-03-12T09:16:49.637Z,100096.91
2023-03-12T09:17:51.919Z,100096.31
2023-03-12T09:18:55.655Z,100094.41
2023-03-12T09:19:57.877Z,100080.66
2023-03-12T09:21:00.178Z,100090.81
2023-03-12T09:22:02.432Z,100086.16
2023-03-12T09:23:06.660Z,100087.81
2023-03-12T09:24:11.563Z,100087.00
2023-03-12T09:25:14.511Z,100076.78
2023-03-12T09:26:16.887Z,100086.72
2023-03-12T09:27:19.201Z,100071.88
2023-03-12T09:28:22.018Z,100071.88
2023-03-12T09:29:25.429Z,100080.72
2023-03-12T09:30:30.383Z,100082.38
2023-03-12T09:31:33.083Z,100074.38
2023-03-12T09:32:35.721Z,100077.13
2023-03-12T09:33:38.628Z,100066.13
2023-03-12T09:34:40.906Z,100077.72
2023-03-12T09:35:45.596Z,100076.66
2023-03-12T09:36:47.861Z,100077.22
2023-03-12T09:37:51.508Z,100072.03
2023-03-12T09:38:55.126Z,100069.63
2023-03-12T09:39:57.513Z,100074.84
2023-03-12T09:40:59.824Z,100077.94
2023-03-12T09:42:06.974Z,100074.41
2023-03-12T09:43:45.574Z,100067.28
2023-03-12T09:44:50.083Z,100071.00
2023-03-12T09:45:54.089Z,100072.97
2023-03-12T09:47:01.272Z,100073.03
2023-03-12T09:48:06.964Z,100075.03
2023-03-12T09:49:21.460Z,100072.09
2023-03-12T09:50:34.233Z,100064.16
2023-03-12T09:51:42.032Z,100073.28
2023-03-12T09:52:52.698Z,100073.34
2023-03-12T09:53:59.559Z,100074.50
2023-03-12T09:55:32.924Z,100074.00
2023-03-12T09:56:35.145Z,100064.63
2023-03-12T09:57:40.021Z,100073.22
2023-03-12T09:58:48.300Z,100057.00
2023-03-12T09:59:52.572Z,100064.75
2023-03-12T10:01:07.550Z,100064.75
2023-03-12T10:02:44.867Z,100060.38
2023-03-12T10:04:28.810Z,100055.75
2023-03-12T10:05:46.075Z,100053.28
2023-03-12T10:07:16.890Z,100046.19
2023-03-12T10:08:32.296Z,100048.13
2023-03-12T10:10:13.783Z,100051.47
2023-03-12T10:11:33.086Z,100052.31
2023-03-12T10:12:47.671Z,100051.22
2023-03-12T10:13:54.956Z,100055.38
2023-03-12T10:15:22.721Z,100055.13
2023-03-12T10:16:49.308Z,100057.59
2023-03-12T10:18:13.556Z,100051.25
2023-03-12T10:19:37.705Z,100046.84
2023-03-12T10:20:57.697Z,100039.09
2023-03-12T10:22:20.185Z,100045.44
2023-03-12T10:23:34.433Z,100034.66
2023-03-12T10:24:54.549Z,100037.69
2023-03-12T10:26:07.040Z,100037.97
2023-03-12T10:27:14.420Z,100042.91
2023-03-12T10:28:28.964Z,100037.66
2023-03-12T10:29:37.441Z,100037.91
2023-03-12T10:30:42.804Z,100037.31
2023-03-12T10:31:51.220Z,100030.16
2023-03-12T10:33:01.304Z,100031.00
2023-03-12T10:34:15.780Z,100031.22
2023-03-12T10:35:22.084Z,100034.00
2023-03-12T10:36:46.948Z,100038.69
2023-03-12T10:37:57.077Z,100037.88
2023-03-12T10:38:59.699Z,100033.16
2023-03-12T10:40:02.573Z,100035.66
2023-03-12T10:41:14.841Z,100035.66
2023-03-12T10:42:19.683Z,100028.25
2023-03-12T10:43:22.996Z,100027.97
2023-03-12T10:44:25.778Z,100026.88
2023-03-12T10:45:46.225Z,100025.75
2023-03-12T10:47:04.177Z,100019.44
2023-03-12T10:48:09.002Z,100015.59
2023-03-12T10:49:24.638Z,100017.25
2023-03-12T10:50:31.016Z,100017.00
2023-03-12T10:51:35.707Z,100015.91
2023-03-12T10:52:38.349Z,100019.47
2023-03-12T10:53:44.842Z,100021.66
2023-03-12T10:54:51.519Z,100013.16
2023-03-12T10:56:16.732Z,100012.28
2023-03-12T10:57:21.058Z,100004.03
2023-03-12T10:58:25.235Z,100009.53
2023-03-12T10:59:31.102Z,100007.88
2023-03-12T11:00:34.160Z,100005.13
2023-03-12T11:01:38.195Z,100010.63
2023-03-12T11:02:46.101Z,100008.72
2023-03-12T11:03:48.502Z,100014.50
2023-03-12T11:04:52.153Z,100016.41
2023-03-12T11:05:56.812Z,100009.22
2023-03-12T11:07:19.516Z,100008.66
2023-03-12T11:08:33.464Z,100008.09
2023-03-12T11:09:38.277Z,100008.63
2023-03-12T11:10:45.810Z,100003.38
2023-03-12T11:11:50.297Z,100009.16
2023-03-12T11:13:02.196Z,99999.47
2023-03-12T11:14:13.173Z,99999.72
2023-03-12T11:15:24.027Z,99997.22
2023-03-12T11:16:31.493Z,99997.19
2023-03-12T11:17:34.437Z,99993.03
2023-03-12T11:18:38.490Z,99991.34
2023-03-12T11:19:44.579Z,99988.03
2023-03-12T11:20:48.367Z,99980.84
2023-03-12T11:22:02.459Z,99984.97
2023-03-12T11:23:27.631Z,99988.53
2023-03-12T11:24:30.942Z,99977.50
2023-03-12T11:25:33.172Z,99979.66
2023-03-12T11:26:37.677Z,99979.94
2023-03-12T11:27:46.304Z,99984.03
2023-03-12T11:28:51.833Z,99980.44
2023-03-12T11:29:54.608Z,99980.69
2023-03-12T11:30:58.513Z,99975.44
2023-03-12T11:32:10.900Z,99982.91
2023-03-12T11:33:13.541Z,99967.47
2023-03-12T11:34:23.047Z,99975.72
2023-03-12T11:35:45.778Z,99976.22
2023-03-12T11:37:10.850Z,99976.22
2023-03-12T11:38:26.391Z,99972.66
2023-03-12T11:39:49.348Z,99971.25
2023-03-12T11:41:36.633Z,99968.16
2023-03-12T11:42:57.440Z,99958.25
2023-03-12T11:44:21.498Z,99967.34
2023-03-12T11:45:35.882Z,99957.69
2023-03-12T11:47:12.893Z,99956.84
2023-03-12T11:48:26.085Z,99956.28
2023-03-12T11:50:03.458Z,99946.53
2023-03-12T11:51:43.196Z,99939.00
2023-03-12T11:53:05.199Z,99938.72
2023-03-12T11:54:22.929Z,99933.97
2023-03-12T11:55:40.521Z,99927.06
2023-03-12T11:56:46.170Z,99929.50
2023-03-12T11:58:00.402Z,99928.63
2023-03-12T11:59:12.990Z,99918.41
2023-03-12T12:00:18.198Z,99915.88
2023-03-12T12:01:32.891Z,99910.81
2023-03-12T12:02:50.297Z,99908.34
2023-03-12T12:04:12.664Z,99907.50
2023-03-12T12:05:57.638Z,99902.25
2023-03-12T12:07:17.111Z,99893.44
2023-03-12T12:08:41.318Z,99894.53
2023-03-12T12:10:26.135Z,99893.94
2023-03-12T12:11:52.048Z,99893.94
2023-03-12T12:13:08.668Z,99891.75
2023-03-12T12:14:48.272Z,99885.66
2023-03-12T12:16:03.361Z,99885.66
2023-03-12T12:17:17.728Z,99885.66
2023-03-12T12:18:46.550Z,99884.59
2023-03-12T12:20:29.959Z,99876.06
2023-03-12T12:21:56.884Z,99877.47
2023-03-12T12:23:37.270Z,99875.06
2023-03-12T12:24:51.812Z,99872.34
2023-03-12T12:26:19.758Z,99873.75
2023-03-12T12:27:26.306Z,99868.84
2023-03-12T12:28:34.659Z,99865.56
2023-03-12T12:29:36.979Z,99868.03
2023-03-12T12:31:17.139Z,99861.19
2023-03-12T12:32:45.073Z,99852.66
2023-03-12T12:34:12.328Z,99844.16
2023-03-12T12:35:26.585Z,99844.16
2023-03-12T12:37:35.429Z,99840.31
2023-03-12T12:38:54.842Z,99832.03
2023-03-12T12:40:25.987Z,99837.22